Time;durP1;ratioP1;P1;durP2;ratioP2;P2;SDS_P1;SDS_P2;PMS_P1;PMS_P2;Temp;Humidity;BMP_temperature;BMP_pressure;BME280_temperature;BME280_humidity;BME280_pressure;Samples;Min_cycle;Max_cycle;Signal;HPM_P1;HPM_P2
2022/05/28 00:01:37;;;;;;;8.93;0.82;;;10.60;99.90;;;;;;5014137;28;20051;-55
2022/05/28 00:04:04;;;;;;;6.82;0.60;;;10.00;99.90;;;;;;5031426;28;20097;-54
2022/05/28 00:06:32;;;;;;;9.90;2.10;;;10.10;99.90;;;;;;5031693;28;20132;-54
2022/05/28 00:08:59;;;;;;;7.75;0.70;;;9.90;99.90;;;;;;5031544;28;20064;-55
2022/05/28 00:11:35;;;;;;;6.00;1.00;;;9.80;99.90;;;;;;5012205;28;20038;-53
2022/05/28 00:14:01;;;;;;;18.50;1.45;;;10.10;99.90;;;;;;5011977;28;20100;-55
2022/05/28 00:16:27;;;;;;;8.27;0.73;;;9.80;99.90;;;;;;5012238;28;20508;-54
2022/05/28 00:18:53;;;;;;;11.27;1.00;;;9.60;99.90;;;;;;5011437;28;20117;-52
2022/05/28 00:21:20;;;;;;;10.82;0.77;;;9.50;99.90;;;;;;5012002;28;20126;-55
2022/05/28 00:23:46;;;;;;;10.18;1.42;;;9.40;99.90;;;;;;5011797;28;20128;-53
2022/05/28 00:26:12;;;;;;;11.85;1.15;;;9.00;99.90;;;;;;5009742;28;20572;-55
2022/05/28 00:28:38;;;;;;;5.22;0.70;;;9.20;99.90;;;;;;5011530;28;20674;-51
2022/05/28 00:31:04;;;;;;;5.95;0.85;;;9.20;99.90;;;;;;5010249;28;20046;-52
2022/05/28 00:33:30;;;;;;;6.72;0.80;;;9.20;99.90;;;;;;5011388;28;20042;-54
2022/05/28 00:35:57;;;;;;;6.80;0.98;;;9.90;99.90;;;;;;5011542;28;20042;-51
2022/05/28 00:38:26;;;;;;;3.88;0.35;;;9.70;99.90;;;;;;5011429;28;20050;-55
2022/05/28 00:40:55;;;;;;;7.82;0.80;;;9.00;99.90;;;;;;5011332;28;20040;-52
2022/05/28 00:43:22;;;;;;;4.55;1.30;;;9.10;99.90;;;;;;5011491;28;20068;-53
2022/05/28 00:45:50;;;;;;;9.80;0.80;;;9.00;99.90;;;;;;5011349;28;20041;-55
2022/05/28 00:48:25;;;;;;;9.88;1.00;;;8.90;99.90;;;;;;5011252;28;20037;-51
2022/05/28 00:50:51;;;;;;;9.95;0.85;;;8.80;99.90;;;;;;5011224;28;20033;-55
2022/05/28 00:53:18;;;;;;;4.57;0.70;;;8.80;99.90;;;;;;5011259;28;20100;-54
2022/05/28 00:55:43;;;;;;;11.98;0.60;;;8.60;99.90;;;;;;5011137;28;20128;-52
2022/05/28 00:58:10;;;;;;;22.67;1.00;;;8.60;99.90;;;;;;5010921;28;20117;-54
2022/05/28 01:00:37;;;;;;;7.70;0.57;;;8.50;99.90;;;;;;5010882;28;20048;-52
2022/05/28 01:03:10;;;;;;;10.43;0.88;;;8.40;99.90;;;;;;5010878;28;20616;-55
2022/05/28 01:06:02;;;;;;;8.13;0.73;;;8.30;99.90;;;;;;5011009;28;20060;-54
2022/05/28 01:08:40;;;;;;;8.63;0.70;;;8.30;99.90;;;;;;5010981;28;20034;-54
2022/05/28 01:11:08;;;;;;;9.18;1.10;;;8.20;99.90;;;;;;5028067;28;20518;-51
2022/05/28 01:13:45;;;;;;;8.02;0.60;;;8.10;99.90;;;;;;5030528;28;20588;-55
2022/05/28 01:16:32;;;;;;;6.15;0.70;;;8.00;99.90;;;;;;5030599;28;20069;-55
2022/05/28 01:19:15;;;;;;;8.68;0.90;;;7.90;99.90;;;;;;5030365;28;20384;-54
2022/05/28 01:22:19;;;;;;;4.93;0.55;;;7.90;99.90;;;;;;5030729;28;20041;-54
2022/05/28 01:24:52;;;;;;;13.82;1.15;;;7.80;99.90;;;;;;5019407;28;20130;-51
2022/05/28 01:27:26;;;;;;;10.38;1.10;;;7.70;99.90;;;;;;5030406;28;20053;-51
2022/05/28 01:29:56;;;;;;;9.23;0.90;;;7.60;99.90;;;;;;5030214;28;20045;-52
2022/05/28 01:32:25;;;;;;;13.57;1.13;;;7.70;99.90;;;;;;5030380;28;20043;-51
2022/05/28 01:34:52;;;;;;;8.30;0.93;;;8.10;99.90;;;;;;5030149;28;20056;-54
2022/05/28 01:37:19;;;;;;;10.52;1.05;;;7.70;99.90;;;;;;5029710;28;20116;-52
2022/05/28 01:39:47;;;;;;;5.60;0.60;;;8.00;99.90;;;;;;5030041;28;20049;-55
2022/05/28 01:42:15;;;;;;;8.85;0.77;;;7.70;99.90;;;;;;5030507;28;20094;-54
2022/05/28 01:44:43;;;;;;;9.57;1.02;;;7.80;99.90;;;;;;5030311;28;20471;-52
2022/05/28 01:47:12;;;;;;;6.63;0.60;;;7.90;99.90;;;;;;5030042;28;20073;-55
2022/05/28 01:49:39;;;;;;;9.57;0.75;;;7.90;99.90;;;;;;5030151;28;20567;-51
2022/05/28 01:52:06;;;;;;;6.38;0.93;;;7.90;99.90;;;;;;5029861;28;20108;-54
2022/05/28 01:54:43;;;;;;;10.02;1.05;;;7.80;99.90;;;;;;5028582;28;20099;-52
2022/05/28 01:57:11;;;;;;;9.45;0.98;;;7.70;99.90;;;;;;5029997;28;20108;-55
2022/05/28 01:59:37;;;;;;;8.23;0.80;;;7.70;99.90;;;;;;5030283;28;20377;-52
2022/05/28 02:02:08;;;;;;;5.97;0.90;;;7.70;99.90;;;;;;5029660;28;20052;-55
2022/05/28 02:04:36;;;;;;;9.88;1.55;;;7.70;99.90;;;;;;5029716;28;20108;-55
2022/05/28 02:07:02;;;;;;;5.65;0.95;;;7.80;99.90;;;;;;5029649;28;20463;-52
2022/05/28 02:09:45;;;;;;;6.68;0.70;;;7.80;99.90;;;;;;5025298;28;20518;-54
2022/05/28 02:12:30;;;;;;;6.30;0.82;;;7.70;99.90;;;;;;5009997;28;20108;-53
2022/05/28 02:15:38;;;;;;;8.77;1.38;;;7.70;99.90;;;;;;5009775;28;20049;-52
2022/05/28 02:18:45;;;;;;;10.35;1.00;;;7.60;99.90;;;;;;5003834;28;20045;-55
2022/05/28 02:21:18;;;;;;;6.75;0.70;;;7.50;99.90;;;;;;5006792;28;20531;-54
2022/05/28 02:23:59;;;;;;;9.90;0.60;;;7.50;99.90;;;;;;5009462;28;20095;-53
2022/05/28 02:26:48;;;;;;;6.68;0.80;;;7.40;99.90;;;;;;5009586;28;20049;-51
2022/05/28 02:29:15;;;;;;;11.40;0.80;;;7.40;99.90;;;;;;5009761;28;20513;-55
2022/05/28 02:31:46;;;;;;;7.00;0.52;;;7.30;99.90;;;;;;5009593;28;20512;-53
2022/05/28 02:34:13;;;;;;;10.45;0.82;;;8.00;99.90;;;;;;5009302;28;20057;-51
2022/05/28 02:36:40;;;;;;;9.35;2.10;;;7.20;99.90;;;;;;5009875;28;20045;-52
2022/05/28 02:39:06;;;;;;;5.60;0.43;;;7.10;99.90;;;;;;5009553;28;20068;-55
2022/05/28 02:41:32;;;;;;;6.65;0.55;;;7.00;99.90;;;;;;5009437;28;20038;-54
2022/05/28 02:43:57;;;;;;;7.78;0.63;;;7.90;99.90;;;;;;5009766;28;20057;-54
2022/05/28 02:46:23;;;;;;;9.65;1.20;;;7.00;99.90;;;;;;5009486;28;20053;-52
2022/05/28 02:48:49;;;;;;;8.75;1.20;;;6.90;99.90;;;;;;5009490;28;20051;-55
2022/05/28 02:51:19;;;;;;;12.70;1.35;;;6.90;99.90;;;;;;5009348;28;20046;-52
2022/05/28 02:53:45;;;;;;;6.07;0.82;;;6.90;99.90;;;;;;5009682;28;20049;-54
2022/05/28 02:56:11;;;;;;;10.45;0.82;;;6.70;99.90;;;;;;5009232;28;20044;-51
2022/05/28 02:58:37;;;;;;;12.45;0.68;;;6.90;99.90;;;;;;5009460;28;20034;-54
2022/05/28 03:01:14;;;;;;;5.03;1.83;;;6.90;99.90;;;;;;5009072;28;20061;-52
2022/05/28 03:03:40;;;;;;;7.82;0.82;;;6.90;99.90;;;;;;5009072;28;20107;-54
2022/05/28 03:06:06;;;;;;;13.23;1.23;;;6.80;99.90;;;;;;5009588;28;20054;-54
2022/05/28 03:08:31;;;;;;;14.32;2.53;;;6.80;99.90;;;;;;5009535;28;20048;-53
2022/05/28 03:10:57;;;;;;;8.35;0.93;;;6.90;99.90;;;;;;5025966;28;20041;-54
2022/05/28 03:13:23;;;;;;;12.52;1.63;;;7.10;99.90;;;;;;5028912;28;20710;-52
2022/05/28 03:15:48;;;;;;;13.52;1.75;;;8.10;99.90;;;;;;5028976;28;20075;-54
2022/05/28 03:18:14;;;;;;;13.30;1.83;;;7.30;99.90;;;;;;5028783;28;20052;-54
2022/05/28 03:20:39;;;;;;;10.70;2.13;;;7.50;99.90;;;;;;5028856;28;20052;-53
2022/05/28 03:23:05;;;;;;;5.75;0.70;;;7.50;99.90;;;;;;5028921;28;20468;-54
2022/05/28 03:25:31;;;;;;;11.50;1.25;;;7.60;99.90;;;;;;5028633;28;20047;-54
2022/05/28 03:27:56;;;;;;;9.77;1.40;;;7.60;99.90;;;;;;5028726;28;20080;-53
2022/05/28 03:30:22;;;;;;;11.55;1.33;;;7.60;99.90;;;;;;5028581;28;20047;-54
2022/05/28 03:32:48;;;;;;;10.13;1.70;;;7.70;99.90;;;;;;5028852;28;20029;-54
2022/05/28 03:35:13;;;;;;;12.18;1.58;;;7.80;99.90;;;;;;5028450;28;20491;-54
2022/05/28 03:37:39;;;;;;;7.57;1.08;;;8.40;99.90;;;;;;5029047;28;20125;-54
2022/05/28 03:40:05;;;;;;;12.95;1.80;;;8.00;99.90;;;;;;5028765;28;20073;-52
2022/05/28 03:42:31;;;;;;;10.43;1.23;;;8.20;99.90;;;;;;5028551;28;20080;-54
2022/05/28 03:44:57;;;;;;;13.80;1.25;;;8.30;99.90;;;;;;5028732;28;20077;-54
2022/05/28 03:47:23;;;;;;;11.20;1.63;;;8.30;99.90;;;;;;5028013;28;20037;-53
2022/05/28 03:49:48;;;;;;;10.70;1.30;;;8.30;99.90;;;;;;5028627;28;20245;-55
2022/05/28 03:52:14;;;;;;;11.68;0.93;;;8.50;99.90;;;;;;5028511;28;20175;-53
2022/05/28 03:54:43;;;;;;;12.52;1.38;;;7.50;99.90;;;;;;5028324;28;20057;-53
2022/05/28 03:57:28;;;;;;;9.50;1.25;;;8.30;99.90;;;;;;5028475;28;20042;-50
2022/05/28 03:59:54;;;;;;;11.32;1.30;;;8.30;99.90;;;;;;5028446;28;20052;-50
2022/05/28 04:02:20;;;;;;;17.50;1.83;;;8.30;99.90;;;;;;5031598;28;20055;-52
2022/05/28 04:04:46;;;;;;;13.10;3.03;;;8.30;99.90;;;;;;5032197;28;20100;-54
2022/05/28 04:07:13;;;;;;;11.10;1.27;;;8.40;99.90;;;;;;5032062;28;20085;-55
2022/05/28 04:09:39;;;;;;;14.02;1.75;;;8.30;99.90;;;;;;5024663;28;20052;-52
2022/05/28 04:12:06;;;;;;;9.80;1.40;;;9.10;99.90;;;;;;5012085;28;20050;-54
2022/05/28 04:14:31;;;;;;;18.38;2.35;;;8.90;99.90;;;;;;5011892;28;20050;-55
2022/05/28 04:16:57;;;;;;;9.80;1.58;;;8.90;99.90;;;;;;5012033;28;20038;-54
2022/05/28 04:19:23;;;;;;;11.65;1.13;;;8.80;99.90;;;;;;5011985;28;20046;-54
2022/05/28 04:21:49;;;;;;;13.48;1.42;;;8.80;99.90;;;;;;5012170;28;20374;-53
2022/05/28 04:24:14;;;;;;;17.40;1.85;;;8.70;99.90;;;;;;5012002;28;20484;-51
2022/05/28 04:26:40;;;;;;;15.90;1.45;;;8.60;99.90;;;;;;5011749;28;20049;-53
2022/05/28 04:29:06;;;;;;;13.55;1.15;;;8.60;99.90;;;;;;5011849;28;20393;-54
2022/05/28 04:31:32;;;;;;;12.55;1.67;;;9.20;99.90;;;;;;5011473;28;20048;-54
2022/05/28 04:33:58;;;;;;;11.90;1.48;;;9.00;99.90;;;;;;5011851;28;20049;-51
2022/05/28 04:36:24;;;;;;;15.07;2.78;;;8.50;99.90;;;;;;5011655;28;20107;-52
2022/05/28 04:38:49;;;;;;;11.80;2.28;;;8.60;99.90;;;;;;5011860;28;20046;-52
2022/05/28 04:41:16;;;;;;;12.07;1.58;;;8.70;99.90;;;;;;5011588;28;20041;-54
2022/05/28 04:43:42;;;;;;;11.13;0.98;;;8.80;99.90;;;;;;5011739;28;20049;-54
2022/05/28 04:46:07;;;;;;;10.50;1.40;;;9.30;99.90;;;;;;5011543;28;20042;-53
2022/05/28 04:48:33;;;;;;;8.88;1.45;;;9.00;99.90;;;;;;5011290;28;20125;-55
2022/05/28 04:50:59;;;;;;;13.60;1.50;;;9.10;99.90;;;;;;5011714;28;20568;-54
2022/05/28 04:53:25;;;;;;;12.10;1.23;;;9.60;99.90;;;;;;5011036;28;20046;-52
2022/05/28 04:55:51;;;;;;;16.63;1.73;;;9.30;99.90;;;;;;5011318;28;20041;-54
2022/05/28 04:58:17;;;;;;;10.88;1.15;;;9.40;99.90;;;;;;5011132;28;20065;-54
2022/05/28 05:00:45;;;;;;;12.13;1.55;;;9.70;99.90;;;;;;5011395;28;20044;-53
2022/05/28 05:03:11;;;;;;;10.60;1.80;;;9.60;99.90;;;;;;5011469;28;20049;-54
2022/05/28 05:05:37;;;;;;;11.95;1.08;;;9.80;99.90;;;;;;5011423;28;20066;-54
2022/05/28 05:08:03;;;;;;;14.38;1.67;;;10.00;99.90;;;;;;5010974;28;20045;-55
2022/05/28 05:10:29;;;;;;;8.68;1.27;;;10.40;99.90;;;;;;5023586;28;20042;-54
2022/05/28 05:12:54;;;;;;;11.02;1.45;;;11.20;99.90;;;;;;5030584;28;20041;-55
2022/05/28 05:15:21;;;;;;;10.23;1.02;;;11.40;99.90;;;;;;5030913;28;20094;-56
2022/05/28 05:17:47;;;;;;;10.55;1.20;;;11.50;99.90;;;;;;5030696;28;20053;-51
2022/05/28 05:20:15;;;;;;;9.45;1.77;;;11.50;99.90;;;;;;5030887;28;20041;-54
2022/05/28 05:22:41;;;;;;;7.82;0.98;;;11.50;99.90;;;;;;5030530;28;20563;-54
2022/05/28 05:25:08;;;;;;;14.57;2.03;;;11.30;99.90;;;;;;5030700;28;20041;-54
2022/05/28 05:27:34;;;;;;;12.57;1.38;;;11.40;99.90;;;;;;5030249;28;20455;-50
2022/05/28 05:30:00;;;;;;;12.95;1.75;;;11.80;99.90;;;;;;5030793;28;20076;-55
2022/05/28 05:32:26;;;;;;;12.02;1.85;;;12.00;99.90;;;;;;5030682;28;20825;-54
2022/05/28 05:34:52;;;;;;;10.10;2.22;;;12.30;99.90;;;;;;5012424;28;20056;-54
2022/05/28 05:37:19;;;;;;;14.63;1.80;;;13.20;99.90;;;;;;5030498;28;20049;-54
2022/05/28 05:39:45;;;;;;;10.30;1.85;;;13.80;99.90;;;;;;5030392;28;20077;-53
2022/05/28 05:42:11;;;;;;;10.63;1.45;;;14.30;99.90;;;;;;5030168;28;20125;-55
2022/05/28 05:44:37;;;;;;;8.38;1.55;;;15.50;99.90;;;;;;5030202;28;20121;-54
2022/05/28 05:47:04;;;;;;;9.25;1.15;;;15.60;99.90;;;;;;5030272;28;20045;-55
2022/05/28 05:49:30;;;;;;;7.53;0.93;;;15.80;99.90;;;;;;5030154;28;20053;-55
2022/05/28 05:51:56;;;;;;;10.68;1.13;;;15.80;99.90;;;;;;5030657;28;20513;-55
2022/05/28 05:54:24;;;;;;;11.57;2.33;;;16.20;99.90;;;;;;5030006;28;20054;-54
2022/05/28 05:56:50;;;;;;;9.00;1.48;;;15.90;99.90;;;;;;5029670;28;20484;-55
2022/05/28 05:59:15;;;;;;;9.93;2.05;;;16.10;99.90;;;;;;5029960;28;20040;-55
2022/05/28 06:01:41;;;;;;;8.15;1.20;;;15.60;99.90;;;;;;5029989;28;20072;-55
2022/05/28 06:04:06;;;;;;;8.40;2.05;;;15.60;99.90;;;;;;5029683;28;20068;-55
2022/05/28 06:06:32;;;;;;;9.98;1.58;;;15.60;99.90;;;;;;5029696;28;20061;-55
2022/05/28 06:08:58;;;;;;;8.45;1.00;;;15.60;99.60;;;;;;5029436;28;20044;-54
2022/05/28 06:11:25;;;;;;;13.48;1.40;;;16.00;98.50;;;;;;5009933;28;20433;-54
2022/05/28 06:13:51;;;;;;;10.50;0.90;;;15.70;98.20;;;;;;5009638;28;20583;-52
2022/05/28 06:16:17;;;;;;;12.25;1.35;;;15.40;97.70;;;;;;5010065;28;20050;-55
2022/05/28 06:18:44;;;;;;;8.00;0.90;;;15.20;97.60;;;;;;5009817;28;20045;-54
2022/05/28 06:21:10;;;;;;;9.77;1.70;;;14.80;97.80;;;;;;5009851;28;20440;-52
2022/05/28 06:23:36;;;;;;;10.52;1.50;;;14.70;98.40;;;;;;5009213;28;20061;-56
2022/05/28 06:26:05;;;;;;;9.88;1.20;;;14.50;99.00;;;;;;5009762;28;20052;-54
2022/05/28 06:28:31;;;;;;;7.82;1.63;;;14.90;98.80;;;;;;5018314;28;20092;-54
2022/05/28 06:31:01;;;;;;;9.07;1.02;;;14.40;99.40;;;;;;5019007;28;20153;-55
2022/05/28 06:33:27;;;;;;;13.15;1.35;;;14.40;99.20;;;;;;5019946;28;20398;-50
2022/05/28 06:35:57;;;;;;;10.43;1.00;;;14.40;99.10;;;;;;5018127;28;20555;-55
2022/05/28 06:38:23;;;;;;;55.78;3.65;;;14.40;99.00;;;;;;5018214;28;20045;-52
2022/05/28 06:40:50;;;;;;;7.80;1.50;;;14.50;98.80;;;;;;5019789;28;20037;-54
2022/05/28 06:43:16;;;;;;;8.85;1.40;;;14.30;98.60;;;;;;5017409;28;20038;-52
2022/05/28 06:45:41;;;;;;;11.18;1.67;;;14.30;98.30;;;;;;5020840;28;20388;-55
2022/05/28 06:48:08;;;;;;;8.57;1.33;;;15.90;97.50;;;;;;5018844;28;20456;-54
2022/05/28 06:53:18;;;;;;;10.93;1.60;;;16.10;95.20;;;;;;5020247;28;20404;-54
2022/05/28 06:55:44;;;;;;;9.82;1.45;;;15.90;94.50;;;;;;5011401;28;20044;-54
2022/05/28 06:58:09;;;;;;;8.65;1.05;;;15.70;94.90;;;;;;5011273;28;20381;-54
2022/05/28 07:00:36;;;;;;;12.43;1.20;;;15.80;96.30;;;;;;5010429;28;20033;-54
2022/05/28 07:03:03;;;;;;;8.65;1.58;;;16.60;96.40;;;;;;5019114;28;20473;-55
2022/05/28 07:05:29;;;;;;;5.40;1.00;;;17.30;95.70;;;;;;5018931;28;20094;-54
2022/05/28 07:07:55;;;;;;;7.47;1.48;;;19.00;94.40;;;;;;5017934;28;20081;-53
2022/05/28 07:10:21;;;;;;;10.45;2.15;;;21.00;91.50;;;;;;5019367;28;20431;-55
2022/05/28 07:12:47;;;;;;;5.90;1.30;;;22.20;88.00;;;;;;5019171;28;20069;-51
2022/05/28 07:15:13;;;;;;;5.82;0.88;;;22.20;82.50;;;;;;5017833;28;20531;-50
2022/05/28 07:17:42;;;;;;;10.20;0.93;;;21.90;79.10;;;;;;5014319;28;20042;-53
2022/05/28 07:20:09;;;;;;;6.70;0.85;;;21.50;78.10;;;;;;5012496;28;20029;-54
2022/05/28 07:22:35;;;;;;;9.05;0.93;;;20.80;77.80;;;;;;5011875;28;20030;-51
2022/05/28 07:25:02;;;;;;;8.05;1.00;;;20.10;78.50;;;;;;5012300;28;20726;-50
2022/05/28 07:27:28;;;;;;;8.85;0.75;;;18.90;80.80;;;;;;5016282;28;20091;-56
2022/05/28 07:29:55;;;;;;;5.32;0.90;;;18.60;80.70;;;;;;5017132;28;20751;-54
2022/05/28 07:32:24;;;;;;;5.50;0.82;;;18.20;81.90;;;;;;5018176;28;20041;-55
2022/05/28 07:34:51;;;;;;;6.68;0.80;;;17.80;82.70;;;;;;5018565;28;20508;-55
2022/05/28 07:37:17;;;;;;;6.55;0.60;;;17.90;84.20;;;;;;5020297;28;20038;-54
2022/05/28 07:39:43;;;;;;;4.43;0.70;;;18.00;84.20;;;;;;5022426;28;20469;-55
2022/05/28 07:42:09;;;;;;;7.30;1.08;;;17.80;84.00;;;;;;5023054;28;20037;-55
2022/05/28 07:44:35;;;;;;;10.23;0.93;;;17.40;83.60;;;;;;5021665;28;20485;-54
2022/05/28 07:47:05;;;;;;;8.52;1.23;;;16.90;83.40;;;;;;5022425;28;20148;-54
2022/05/28 07:49:31;;;;;;;8.02;1.35;;;16.60;84.70;;;;;;5022155;28;20052;-54
2022/05/28 07:51:57;;;;;;;7.55;1.10;;;16.50;85.70;;;;;;5020597;28;20046;-55
2022/05/28 07:54:22;;;;;;;6.07;0.80;;;16.60;85.70;;;;;;5022499;28;20034;-53
2022/05/28 07:56:48;;;;;;;9.20;0.85;;;17.20;86.00;;;;;;5021517;28;20088;-55
2022/05/28 07:59:14;;;;;;;7.25;0.98;;;17.60;85.40;;;;;;5020973;28;20048;-56
2022/05/28 08:01:40;;;;;;;7.32;1.35;;;17.50;83.60;;;;;;5022775;28;20060;-53
2022/05/28 08:04:07;;;;;;;6.88;0.85;;;17.20;82.90;;;;;;5020879;28;20046;-55
2022/05/28 08:06:33;;;;;;;9.05;1.00;;;16.80;83.60;;;;;;5021477;28;20053;-55
2022/05/28 08:08:59;;;;;;;6.55;0.77;;;16.40;83.90;;;;;;5020203;28;20041;-55
2022/05/28 08:11:25;;;;;;;10.30;1.85;;;16.20;84.90;;;;;;5020566;28;20396;-53
2022/05/28 08:13:52;;;;;;;12.02;0.90;;;16.30;86.40;;;;;;5020662;28;20395;-56
2022/05/28 08:16:19;;;;;;;8.38;1.58;;;16.40;86.40;;;;;;5021217;28;20500;-56
2022/05/28 08:18:45;;;;;;;7.03;0.93;;;17.70;86.00;;;;;;5022325;28;20068;-53
2022/05/28 08:23:57;;;;;;;7.50;1.02;;;17.50;83.20;;;;;;5011615;28;20515;-54
2022/05/28 08:26:24;;;;;;;7.90;1.20;;;17.10;83.70;;;;;;5015345;28;20034;-56
2022/05/28 08:28:51;;;;;;;10.27;1.50;;;16.70;85.20;;;;;;5011879;28;20025;-55
2022/05/28 08:31:18;;;;;;;8.95;1.23;;;16.30;86.90;;;;;;5011248;28;20054;-50
2022/05/28 08:33:44;;;;;;;8.80;1.05;;;16.90;88.10;;;;;;5012055;28;20132;-54
2022/05/28 08:36:11;;;;;;;11.23;1.88;;;17.60;86.20;;;;;;5011787;28;20421;-54
2022/05/28 08:38:37;;;;;;;7.47;1.20;;;19.50;84.00;;;;;;5012170;28;20113;-54
2022/05/28 08:41:19;;;;;;;7.13;1.30;;;21.80;79.70;;;;;;5011812;28;20045;-54
2022/05/28 08:44:08;;;;;;;12.55;1.10;;;22.50;71.20;;;;;;5012277;28;20096;-54
2022/05/28 08:46:36;;;;;;;5.30;0.50;;;22.40;68.50;;;;;;5009846;28;20065;-54
2022/05/28 08:49:05;;;;;;;7.97;1.50;;;24.00;66.50;;;;;;5013980;28;20042;-54
2022/05/28 08:51:52;;;;;;;5.18;0.98;;;24.40;63.90;;;;;;5013894;28;20041;-52
2022/05/28 08:54:56;;;;;;;6.05;0.93;;;24.40;61.30;;;;;;5011579;28;20052;-53
2022/05/28 08:57:29;;;;;;;10.25;0.80;;;23.90;60.70;;;;;;5011551;28;20121;-54
2022/05/28 09:00:03;;;;;;;7.60;1.20;;;23.80;61.50;;;;;;5011969;28;20042;-55
2022/05/28 09:02:40;;;;;;;7.03;0.80;;;23.70;61.40;;;;;;5013879;28;20416;-55
2022/05/28 09:05:26;;;;;;;5.75;0.75;;;23.40;59.10;;;;;;5020749;28;20416;-55
2022/05/28 09:07:57;;;;;;;7.45;1.02;;;22.70;59.20;;;;;;5022977;28;20042;-55
2022/05/28 09:10:23;;;;;;;7.50;0.80;;;20.20;60.50;;;;;;5021717;28;20045;-56
2022/05/28 09:12:58;;;;;;;9.93;1.00;;;21.80;62.80;;;;;;5013687;28;20046;-55
2022/05/28 09:15:24;;;;;;;12.25;1.40;;;23.10;62.00;;;;;;5011788;28;20049;-55
2022/05/28 09:17:56;;;;;;;9.10;1.02;;;24.40;61.10;;;;;;5011433;28;20041;-44
2022/05/28 09:20:28;;;;;;;4.93;0.50;;;24.50;59.60;;;;;;5011885;28;20544;-45
2022/05/28 09:22:55;;;;;;;8.75;1.25;;;23.90;58.00;;;;;;5012180;28;20046;-40
2022/05/28 09:25:24;;;;;;;11.70;1.25;;;22.90;58.70;;;;;;5011813;28;20050;-42
2022/05/28 09:28:20;;;;;;;5.85;0.82;;;22.10;59.70;;;;;;5012859;28;20074;-41
2022/05/28 09:31:22;;;;;;;6.45;0.80;;;22.60;60.80;;;;;;5012918;28;20077;-41
2022/05/28 09:34:12;;;;;;;9.70;1.20;;;22.30;59.80;;;;;;5011454;28;20062;-41
2022/05/28 09:37:01;;;;;;;8.75;1.23;;;21.30;61.00;;;;;;5012642;28;20049;-42
2022/05/28 09:39:39;;;;;;;11.45;1.80;;;20.40;62.50;;;;;;5012706;28;20508;-41
2022/05/28 09:42:21;;;;;;;8.02;1.58;;;19.80;63.40;;;;;;5012033;28;20125;-40
2022/05/28 09:45:25;;;;;;;;;;;20.10;66.40;;;;;;5013148;28;20084;-41
2022/05/28 09:47:53;;;;;;;8.27;1.17;;;21.70;66.90;;;;;;4990511;28;20376;-41
2022/05/28 09:50:39;;;;;;;10.02;1.50;;;22.10;63.70;;;;;;4990443;28;20049;-42
2022/05/28 09:56:12;;;;;;;9.38;1.10;;;21.20;62.20;;;;;;5012258;28;20090;-42
2022/05/28 09:58:40;;;;;;;7.40;1.13;;;20.90;64.50;;;;;;5011545;28;20100;-40
2022/05/28 10:01:24;;;;;;;8.57;1.27;;;21.50;66.10;;;;;;5012186;28;20195;-40
2022/05/28 10:06:51;;;;;;;9.95;0.90;;;23.80;61.60;;;;;;5012039;28;20046;-41
2022/05/28 10:09:19;;;;;;;7.82;1.48;;;25.00;59.30;;;;;;5014678;28;20049;-43
2022/05/28 10:11:52;;;;;;;6.80;0.80;;;24.90;57.60;;;;;;5031852;28;20444;-42
2022/05/28 10:14:17;;;;;;;8.68;1.23;;;24.50;57.90;;;;;;5031661;28;20041;-41
2022/05/28 10:16:46;;;;;;;10.93;1.40;;;26.10;60.90;;;;;;5031485;28;20498;-41
2022/05/28 10:19:19;;;;;;;9.13;1.23;;;26.50;59.00;;;;;;5031982;28;20037;-42
2022/05/28 10:21:52;;;;;;;7.70;1.30;;;26.90;54.10;;;;;;5031511;28;20504;-43
2022/05/28 10:24:20;;;;;;;8.80;1.17;;;26.10;53.90;;;;;;5031567;28;20056;-43
2022/05/28 10:26:54;;;;;;;7.63;1.30;;;24.80;55.20;;;;;;5031565;28;20045;-41
2022/05/28 10:29:38;;;;;;;6.93;1.00;;;23.70;56.10;;;;;;5031620;28;20041;-42
2022/05/28 10:32:35;;;;;;;8.85;1.25;;;22.90;57.20;;;;;;5030937;28;20555;-41
2022/05/28 10:35:19;;;;;;;9.70;1.20;;;22.50;58.20;;;;;;5031095;28;20045;-41
2022/05/28 10:37:45;;;;;;;6.53;0.95;;;22.40;58.60;;;;;;5031316;28;20037;-41
2022/05/28 10:40:18;;;;;;;8.65;1.42;;;22.40;60.30;;;;;;5031225;28;20060;-41
2022/05/28 10:42:45;;;;;;;5.72;0.70;;;22.90;59.40;;;;;;5031220;28;20045;-40
2022/05/28 10:45:15;;;;;;;9.32;1.02;;;22.90;58.00;;;;;;5031444;28;20068;-41
2022/05/28 10:47:41;;;;;;;7.18;1.30;;;22.30;56.60;;;;;;5031674;28;20045;-41
2022/05/28 10:50:22;;;;;;;5.95;0.68;;;21.60;56.90;;;;;;5031469;28;20418;-41
2022/05/28 10:52:50;;;;;;;7.40;1.17;;;21.10;57.50;;;;;;5031426;28;20049;-42
2022/05/28 10:55:53;;;;;;;7.85;1.17;;;20.80;58.80;;;;;;5030888;28;20041;-41
2022/05/28 10:58:42;;;;;;;7.55;1.40;;;20.50;60.40;;;;;;5031085;28;20048;-40
2022/05/28 11:01:40;;;;;;;7.78;1.05;;;20.60;61.40;;;;;;5030046;28;20053;-41
2022/05/28 11:04:27;;;;;;;10.23;0.95;;;20.60;59.50;;;;;;5030981;28;20057;-41
2022/05/28 11:07:00;;;;;;;4.43;0.60;;;20.20;59.50;;;;;;5031137;28;20068;-40
2022/05/28 11:09:42;;;;;;;7.30;0.68;;;19.60;59.70;;;;;;5026541;28;20045;-40
2022/05/28 11:12:19;;;;;;;;;;;19.30;60.10;;;;;;5015410;28;20485;-40
2022/05/28 11:15:00;;;;;;;6.18;1.17;;;19.20;61.10;;;;;;5029869;28;19932;-41
2022/05/28 11:17:45;;;;;;;6.75;0.65;;;19.30;62.40;;;;;;5032538;28;20052;-43
2022/05/28 11:20:25;;;;;;;4.47;0.50;;;19.20;63.40;;;;;;5025364;28;20116;-41
2022/05/28 11:23:00;;;;;;;11.68;1.02;;;19.00;65.30;;;;;;5014835;28;20085;-40
2022/05/28 11:26:07;;;;;;;7.43;1.00;;;19.00;61.30;;;;;;5015084;28;20141;-41
2022/05/28 11:28:51;;;;;;;7.93;0.70;;;18.70;60.90;;;;;;5014407;28;20048;-40
2022/05/28 11:31:41;;;;;;;7.75;0.70;;;18.70;62.50;;;;;;5015105;28;20042;-41
2022/05/28 11:34:30;;;;;;;8.73;1.05;;;18.90;64.10;;;;;;5020274;28;20493;-40
2022/05/28 11:37:05;;;;;;;4.00;0.50;;;19.10;64.40;;;;;;5032932;28;20068;-41
2022/05/28 11:39:32;;;;;;;7.13;0.75;;;19.30;61.80;;;;;;5034676;28;20037;-40
2022/05/28 11:42:29;;;;;;;9.15;1.23;;;19.30;61.80;;;;;;5033829;28;20484;-41
2022/05/28 11:44:56;;;;;;;9.75;0.68;;;19.20;62.30;;;;;;5023513;28;20049;-41
2022/05/28 11:47:34;;;;;;;10.23;0.90;;;19.10;62.70;;;;;;5025203;28;20477;-41
2022/05/28 11:53:43;;;;;;;7.40;0.73;;;18.90;63.30;;;;;;5021792;28;20048;-40
2022/05/28 11:56:15;;;;;;;8.32;0.60;;;18.80;63.30;;;;;;5025478;28;20103;-40
2022/05/28 11:58:52;;;;;;;8.10;0.73;;;18.70;62.70;;;;;;5024786;28;20610;-43
2022/05/28 12:01:23;;;;;;;9.02;1.42;;;18.90;63.70;;;;;;5024614;28;20080;-40
2022/05/28 12:03:52;;;;;;;6.20;1.00;;;18.80;62.90;;;;;;5022217;28;20046;-43
2022/05/28 12:06:37;;;;;;;6.95;1.35;;;18.70;63.00;;;;;;5014512;28;20058;-42
2022/05/28 12:09:20;;;;;;;7.32;0.98;;;18.60;63.30;;;;;;5014962;28;20046;-41
2022/05/28 12:12:00;;;;;;;6.57;0.80;;;18.60;63.60;;;;;;5033411;28;20033;-43
2022/05/28 12:14:31;;;;;;;6.30;1.17;;;18.60;63.90;;;;;;5033426;28;20435;-41
2022/05/28 12:17:03;;;;;;;7.00;1.20;;;18.30;64.00;;;;;;5033555;28;20041;-41
2022/05/28 12:19:29;;;;;;;;;;;18.00;64.80;;;;;;5014422;28;20038;-43
2022/05/28 12:22:22;;;;;;;7.72;0.93;;;17.80;66.90;;;;;;5012880;28;19917;-41
2022/05/28 12:24:59;;;;;;;7.75;1.25;;;17.50;67.50;;;;;;5013921;28;20046;-41
2022/05/28 12:27:42;;;;;;;4.90;0.75;;;17.20;70.10;;;;;;5013961;28;20037;-41
2022/05/28 12:30:24;;;;;;;8.95;0.75;;;17.00;71.80;;;;;;5013542;28;20048;-41
2022/05/28 12:32:51;;;;;;;12.23;1.05;;;16.80;73.30;;;;;;5013720;28;20121;-41
2022/05/28 12:35:19;;;;;;;4.78;0.93;;;16.80;75.00;;;;;;5013573;28;20133;-40
2022/05/28 12:37:54;;;;;;;9.35;0.90;;;17.00;75.80;;;;;;5013546;28;20504;-40
2022/05/28 12:40:38;;;;;;;7.20;0.95;;;17.20;77.20;;;;;;5013980;28;20037;-40
2022/05/28 12:43:17;;;;;;;8.10;1.40;;;17.60;79.60;;;;;;5013668;28;20337;-40
2022/05/28 12:45:45;;;;;;;11.65;1.08;;;18.10;77.10;;;;;;5013361;28;20041;-42
2022/05/28 12:48:15;;;;;;;6.45;1.70;;;18.30;76.10;;;;;;5013639;28;20049;-41
2022/05/28 12:51:00;;;;;;;9.25;1.65;;;18.40;74.80;;;;;;5013752;28;20133;-41
2022/05/28 12:53:27;;;;;;;11.63;1.42;;;18.30;72.40;;;;;;5013090;28;20103;-41
2022/05/28 12:56:06;;;;;;;6.45;0.80;;;18.20;73.10;;;;;;5013592;28;20045;-43
2022/05/28 12:58:36;;;;;;;11.02;1.38;;;18.00;73.50;;;;;;5013173;28;20370;-41
2022/05/28 13:01:06;;;;;;;8.13;0.80;;;17.70;74.10;;;;;;5012363;28;20107;-40
2022/05/28 13:03:42;;;;;;;8.98;1.00;;;17.50;74.30;;;;;;5013589;28;20374;-42
2022/05/28 13:06:36;;;;;;;10.88;1.13;;;17.50;74.50;;;;;;5013561;28;20545;-41
2022/05/28 13:09:11;;;;;;;7.75;1.13;;;17.40;73.60;;;;;;5008242;28;20053;-41
2022/05/28 13:11:44;;;;;;;15.80;1.35;;;17.40;72.80;;;;;;5032976;28;20103;-41
2022/05/28 13:14:18;;;;;;;9.73;1.05;;;17.40;72.40;;;;;;5032784;28;20107;-41
2022/05/28 13:16:55;;;;;;;8.40;0.93;;;17.40;71.80;;;;;;5032516;28;20550;-41
2022/05/28 13:19:24;;;;;;;9.45;1.42;;;17.40;72.00;;;;;;5032948;28;20037;-41
2022/05/28 13:21:57;;;;;;;9.82;1.20;;;17.40;71.60;;;;;;5032419;28;20046;-42
2022/05/28 13:24:49;;;;;;;11.57;1.40;;;17.60;71.70;;;;;;5032493;28;20046;-43